Terminal Aerodrome Forecast
Issued by NWS

Home | Current Version | Previous Version | Text Only | Print | Product List | Glossary On
Versions: 1 2 3 4 5 6 7 8 9 10 11 12 13 14 15 16 17 18 19 20 21 22 23
000
FTUS45 KREV 291721
TAFTRK
TAF
KTRK 291721Z 2918/3018 21019G34KT P6SM SCT050 BKN080 WS020/25045KT
     FM292100 22019G28KT P6SM SCT050 BKN080 WS020/26040KT
     FM300000 25012G20KT P6SM SCT080 BKN150
     FM300200 27008KT P6SM SCT150 BKN200
     FM300700 VRB03KT P6SM SCT200=

USA.gov is the U.S. government's official web portal to all federal, state and local government web resources and services.